Time;durP1;ratioP1;P1;durP2;ratioP2;P2;SDS_P1;SDS_P2;PMS_P1;PMS_P2;Temp;Humidity;BMP_temperature;BMP_pressure;BME280_temperature;BME280_humidity;BME280_pressure;Samples;Min_cycle;Max_cycle;Signal;HPM_P1;HPM_P2
2022/06/15 00:02:09;;;;;;;4.60;1.10;;;15.50;99.90;;;;;;5029307;28;20041;-45
2022/06/15 00:04:35;;;;;;;3.08;1.00;;;15.50;99.90;;;;;;5029110;28;20423;-46
2022/06/15 00:07:01;;;;;;;4.75;0.70;;;15.50;99.90;;;;;;5036044;28;20105;-45
2022/06/15 00:09:27;;;;;;;3.67;0.63;;;15.50;99.90;;;;;;5020986;28;20104;-44
2022/06/15 00:11:53;;;;;;;3.30;0.60;;;15.40;99.90;;;;;;5031470;28;20045;-45
2022/06/15 00:14:25;;;;;;;2.30;0.80;;;15.40;99.90;;;;;;5033324;28;20045;-46
2022/06/15 00:16:51;;;;;;;3.45;0.65;;;15.40;99.90;;;;;;5031574;28;20045;-46
2022/06/15 00:19:18;;;;;;;1.55;0.50;;;15.40;99.90;;;;;;5035711;28;20043;-48
2022/06/15 00:21:44;;;;;;;3.72;0.82;;;15.40;99.90;;;;;;5032212;28;20088;-45
2022/06/15 00:24:11;;;;;;;3.10;0.52;;;15.40;99.90;;;;;;5032029;28;20033;-45
2022/06/15 00:26:38;;;;;;;2.92;0.80;;;15.40;99.90;;;;;;5050907;28;20052;-47
2022/06/15 00:29:04;;;;;;;5.07;1.10;;;15.40;99.90;;;;;;5031116;28;20116;-47
2022/06/15 00:31:29;;;;;;;3.00;0.80;;;15.30;99.90;;;;;;5031359;28;20069;-47
2022/06/15 00:33:55;;;;;;;2.92;0.80;;;15.30;99.90;;;;;;5030387;28;20806;-49
2022/06/15 00:36:22;;;;;;;2.70;0.70;;;15.30;99.90;;;;;;5029798;28;20415;-45
2022/06/15 00:38:56;;;;;;;3.20;1.00;;;15.30;99.90;;;;;;5028537;28;20104;-53
2022/06/15 00:41:43;;;;;;;2.58;0.93;;;15.30;99.90;;;;;;5032832;28;20072;-48
2022/06/15 00:44:26;;;;;;;3.22;0.82;;;15.30;99.90;;;;;;5033313;28;20049;-48
2022/06/15 00:47:01;;;;;;;5.95;0.90;;;15.30;99.90;;;;;;5044778;28;20076;-49
2022/06/15 00:49:30;;;;;;;3.63;1.02;;;15.30;99.90;;;;;;5027903;28;20045;-48
2022/06/15 00:52:01;;;;;;;2.53;0.80;;;15.20;99.90;;;;;;5032768;28;20546;-48
2022/06/15 00:54:27;;;;;;;4.28;1.10;;;15.20;99.90;;;;;;5026211;28;20136;-49
2022/06/15 00:56:54;;;;;;;2.00;0.52;;;15.20;99.90;;;;;;5024700;28;20107;-46
2022/06/15 00:59:29;;;;;;;2.65;0.80;;;15.20;99.90;;;;;;5032435;28;20046;-49
2022/06/15 01:01:55;;;;;;;3.35;0.80;;;15.20;99.90;;;;;;5048815;28;20049;-48
2022/06/15 01:04:21;;;;;;;3.45;0.68;;;15.20;99.90;;;;;;5022454;28;20099;-45
2022/06/15 01:07:05;;;;;;;1.85;0.60;;;15.20;99.90;;;;;;5032119;28;20116;-49
2022/06/15 01:09:39;;;;;;;2.30;0.50;;;15.20;99.90;;;;;;5035250;28;20384;-47
2022/06/15 01:12:43;;;;;;;2.42;1.00;;;15.10;99.90;;;;;;5026693;28;20068;-47
2022/06/15 01:15:32;;;;;;;3.33;0.95;;;15.10;99.90;;;;;;5035466;28;20075;-45
2022/06/15 01:18:20;;;;;;;3.08;0.50;;;15.10;99.90;;;;;;5027606;28;20038;-46
2022/06/15 01:20:52;;;;;;;2.45;0.70;;;15.00;99.90;;;;;;5033954;28;20033;-46
2022/06/15 01:23:36;;;;;;;2.33;0.57;;;15.00;99.90;;;;;;5033112;28;20044;-48
2022/06/15 01:26:05;;;;;;;3.28;0.70;;;14.90;99.90;;;;;;5027673;28;20036;-45
2022/06/15 01:28:42;;;;;;;3.35;0.80;;;14.90;99.90;;;;;;5032460;28;20084;-47
2022/06/15 01:31:13;;;;;;;2.45;0.50;;;14.90;99.90;;;;;;5029511;28;20128;-45
2022/06/15 01:34:07;;;;;;;2.58;0.80;;;14.90;99.90;;;;;;5031186;28;20435;-48
2022/06/15 01:36:58;;;;;;;2.70;0.60;;;14.90;99.90;;;;;;5032012;28;20037;-47
2022/06/15 01:39:38;;;;;;;3.10;0.88;;;14.80;99.90;;;;;;5028601;28;20080;-49
2022/06/15 01:42:05;;;;;;;2.88;0.80;;;14.80;99.90;;;;;;5021227;28;20060;-47
2022/06/15 01:44:35;;;;;;;2.53;0.60;;;14.70;99.90;;;;;;5031092;28;20048;-48
2022/06/15 01:47:05;;;;;;;5.47;0.70;;;14.70;99.90;;;;;;5029625;28;20053;-48
2022/06/15 01:49:37;;;;;;;2.90;0.65;;;14.70;99.90;;;;;;5033068;28;20033;-46
2022/06/15 01:52:04;;;;;;;2.03;0.52;;;14.70;99.90;;;;;;5030930;28;20041;-46
2022/06/15 01:54:36;;;;;;;2.78;0.57;;;14.60;99.90;;;;;;5033820;28;20052;-47
2022/06/15 01:57:05;;;;;;;1.88;0.43;;;14.60;99.90;;;;;;5031119;28;20037;-48
2022/06/15 01:59:45;;;;;;;1.55;0.52;;;14.50;99.90;;;;;;5037231;28;20064;-46
2022/06/15 02:02:22;;;;;;;2.45;0.60;;;14.50;99.90;;;;;;5024569;28;20060;-47
2022/06/15 02:05:14;;;;;;;2.90;0.80;;;14.50;99.90;;;;;;5034047;28;20065;-47
2022/06/15 02:07:53;;;;;;;2.15;0.60;;;14.50;99.90;;;;;;5033265;28;20050;-47
2022/06/15 02:10:24;;;;;;;1.67;0.52;;;14.40;99.90;;;;;;5031481;28;20473;-47
2022/06/15 02:13:07;;;;;;;2.28;0.40;;;14.40;99.90;;;;;;5031389;28;20075;-46
2022/06/15 02:15:36;;;;;;;3.53;0.70;;;14.40;99.90;;;;;;5031191;28;20049;-46
2022/06/15 02:18:07;;;;;;;1.90;0.50;;;14.30;99.90;;;;;;5031989;28;20106;-46
2022/06/15 02:20:38;;;;;;;3.60;0.60;;;14.30;99.90;;;;;;5029716;28;20037;-46
2022/06/15 02:23:09;;;;;;;3.92;0.90;;;14.20;99.90;;;;;;5030353;28;20083;-46
2022/06/15 02:25:40;;;;;;;2.92;0.50;;;14.20;99.90;;;;;;5030952;28;20041;-49
2022/06/15 02:28:07;;;;;;;2.33;0.50;;;14.20;99.90;;;;;;5029699;28;20131;-47
2022/06/15 02:30:33;;;;;;;2.83;0.57;;;14.20;99.90;;;;;;5030763;28;20036;-50
2022/06/15 02:33:23;;;;;;;2.70;0.47;;;14.10;99.90;;;;;;4988180;28;20037;-47
2022/06/15 02:35:49;;;;;;;2.67;0.75;;;14.10;99.90;;;;;;5022178;28;20045;-50
2022/06/15 02:38:15;;;;;;;2.78;0.65;;;14.00;99.90;;;;;;5028202;28;20068;-49
2022/06/15 02:40:41;;;;;;;2.38;0.68;;;14.00;99.90;;;;;;5026983;28;20505;-45
2022/06/15 02:43:08;;;;;;;2.35;0.70;;;14.00;99.90;;;;;;5028307;28;20049;-46
2022/06/15 02:45:36;;;;;;;1.92;0.52;;;13.90;99.90;;;;;;5027582;28;20107;-48
2022/06/15 02:48:05;;;;;;;3.25;0.75;;;13.90;99.90;;;;;;5028429;28;20052;-49
2022/06/15 02:50:38;;;;;;;1.45;0.50;;;13.90;99.90;;;;;;5031507;28;20118;-49
2022/06/15 02:53:15;;;;;;;1.90;0.60;;;13.80;99.90;;;;;;5017903;28;20050;-47
2022/06/15 02:55:42;;;;;;;2.90;0.50;;;13.80;99.90;;;;;;5013529;28;20081;-47
2022/06/15 02:58:12;;;;;;;3.97;0.77;;;13.80;99.90;;;;;;5032975;28;20127;-48
2022/06/15 03:00:39;;;;;;;2.35;0.55;;;13.80;99.90;;;;;;5023477;28;20041;-45
2022/06/15 03:03:06;;;;;;;2.60;0.60;;;13.80;99.90;;;;;;5030098;28;20042;-49
2022/06/15 03:05:32;;;;;;;3.28;0.80;;;13.80;99.90;;;;;;5030777;28;20037;-47
2022/06/15 03:07:58;;;;;;;2.75;0.95;;;13.80;99.90;;;;;;5025058;28;20029;-48
2022/06/15 03:10:24;;;;;;;2.35;0.47;;;13.80;99.90;;;;;;5036740;28;20316;-50
2022/06/15 03:12:50;;;;;;;3.38;0.77;;;13.80;99.90;;;;;;5029148;28;20387;-49
2022/06/15 03:15:17;;;;;;;1.85;0.60;;;13.80;99.90;;;;;;5028101;28;20030;-47
2022/06/15 03:17:42;;;;;;;3.55;0.75;;;13.80;99.90;;;;;;5020716;28;20087;-50
2022/06/15 03:20:11;;;;;;;1.92;0.60;;;13.90;99.90;;;;;;5028863;28;20069;-50
2022/06/15 03:22:37;;;;;;;1.25;0.40;;;13.90;99.90;;;;;;5030738;28;20124;-51
2022/06/15 03:25:03;;;;;;;3.35;0.60;;;13.80;99.90;;;;;;5032389;28;20112;-49
2022/06/15 03:27:29;;;;;;;3.20;0.77;;;13.90;99.90;;;;;;5028812;28;20083;-47
2022/06/15 03:29:55;;;;;;;2.63;0.50;;;13.90;99.90;;;;;;5011679;28;20483;-48
2022/06/15 03:32:21;;;;;;;3.17;0.68;;;13.90;99.90;;;;;;5023561;28;20120;-50
2022/06/15 03:34:46;;;;;;;2.67;0.50;;;13.90;99.90;;;;;;5020231;28;20045;-50
2022/06/15 03:37:12;;;;;;;2.13;0.40;;;13.90;99.90;;;;;;5007627;28;20148;-47
2022/06/15 03:39:38;;;;;;;3.90;0.65;;;13.90;99.90;;;;;;5030554;28;20037;-48
2022/06/15 03:42:24;;;;;;;2.20;0.50;;;13.90;99.90;;;;;;5025814;28;20050;-48
2022/06/15 03:44:52;;;;;;;1.85;0.50;;;14.00;99.90;;;;;;5023784;28;20052;-49
2022/06/15 03:47:17;;;;;;;2.95;0.70;;;14.00;99.90;;;;;;5022591;28;20036;-47
2022/06/15 03:49:45;;;;;;;2.72;0.70;;;14.00;99.90;;;;;;5027239;28;20041;-48
2022/06/15 03:52:11;;;;;;;2.10;0.60;;;14.00;99.90;;;;;;5027696;28;20498;-48
2022/06/15 03:54:37;;;;;;;3.80;0.73;;;14.00;99.90;;;;;;5026910;28;20048;-48
2022/06/15 03:57:03;;;;;;;1.85;0.50;;;14.00;99.90;;;;;;5028714;28;20103;-51
2022/06/15 03:59:30;;;;;;;4.20;0.80;;;14.10;99.90;;;;;;5025945;28;20145;-49
2022/06/15 04:01:56;;;;;;;3.25;0.52;;;14.10;99.90;;;;;;5029448;28;20049;-48
2022/06/15 04:04:22;;;;;;;2.92;0.70;;;14.10;99.90;;;;;;5029466;28;20075;-46
2022/06/15 04:06:49;;;;;;;3.10;0.82;;;14.10;99.90;;;;;;5030454;28;20040;-47
2022/06/15 04:09:20;;;;;;;1.83;0.50;;;14.10;99.90;;;;;;5015415;28;20049;-47
2022/06/15 04:11:59;;;;;;;2.08;0.50;;;14.20;99.90;;;;;;5031352;28;20049;-47
2022/06/15 04:14:35;;;;;;;3.45;0.90;;;14.20;99.90;;;;;;5034346;28;20124;-47
2022/06/15 04:17:01;;;;;;;1.77;0.43;;;14.20;99.90;;;;;;5026386;28;20044;-46
2022/06/15 04:19:31;;;;;;;1.20;0.30;;;14.20;99.90;;;;;;5050466;28;20059;-48
2022/06/15 04:21:57;;;;;;;2.22;0.60;;;14.30;99.90;;;;;;5031633;28;20513;-46
2022/06/15 04:24:28;;;;;;;3.25;0.70;;;14.30;99.90;;;;;;5031237;28;20119;-46
2022/06/15 04:26:54;;;;;;;2.03;0.55;;;14.30;99.90;;;;;;5033948;28;20049;-47
2022/06/15 04:29:20;;;;;;;1.85;0.60;;;14.30;99.90;;;;;;5012966;28;20095;-46
2022/06/15 04:31:47;;;;;;;2.75;0.50;;;14.40;99.90;;;;;;5030634;28;20171;-48
2022/06/15 04:34:13;;;;;;;1.83;0.60;;;14.40;99.90;;;;;;5024637;28;20088;-50
2022/06/15 04:36:41;;;;;;;5.05;0.80;;;14.40;99.90;;;;;;5008017;28;20053;-50
2022/06/15 04:39:08;;;;;;;2.63;0.68;;;14.40;99.90;;;;;;5028988;28;20045;-51
2022/06/15 04:41:38;;;;;;;3.58;0.50;;;14.50;99.90;;;;;;5027697;28;20064;-51
2022/06/15 04:44:05;;;;;;;2.67;0.40;;;14.50;99.90;;;;;;5028891;28;20175;-45
2022/06/15 04:46:31;;;;;;;1.52;0.50;;;14.50;99.90;;;;;;5022850;28;20040;-46
2022/06/15 04:48:57;;;;;;;2.90;0.47;;;14.60;99.90;;;;;;5031118;28;20455;-48
2022/06/15 04:51:26;;;;;;;1.48;0.40;;;14.60;99.90;;;;;;5026267;28;20053;-47
2022/06/15 04:53:53;;;;;;;2.58;0.43;;;14.60;99.90;;;;;;5031720;28;20450;-48
2022/06/15 04:56:20;;;;;;;3.25;0.60;;;14.60;99.90;;;;;;5025346;28;20531;-47
2022/06/15 04:58:46;;;;;;;2.83;0.40;;;14.70;99.90;;;;;;5030715;28;20116;-49
2022/06/15 05:01:13;;;;;;;3.03;0.50;;;14.70;99.90;;;;;;5025583;28;20110;-48
2022/06/15 05:03:40;;;;;;;2.45;1.02;;;14.80;99.90;;;;;;5028788;28;20068;-48
2022/06/15 05:06:28;;;;;;;4.82;0.88;;;14.80;99.90;;;;;;5035450;28;20119;-46
2022/06/15 05:08:54;;;;;;;3.38;1.00;;;14.90;99.90;;;;;;5030170;28;20113;-48
2022/06/15 05:11:20;;;;;;;2.90;0.77;;;14.90;99.90;;;;;;5033167;28;20044;-51
2022/06/15 05:13:46;;;;;;;2.72;1.13;;;14.90;99.90;;;;;;5019551;28;20502;-47
2022/06/15 05:16:11;;;;;;;4.30;0.80;;;15.00;99.90;;;;;;4995747;28;20044;-47
2022/06/15 05:18:37;;;;;;;2.28;0.90;;;15.00;99.90;;;;;;5024624;28;20045;-46
2022/06/15 05:21:03;;;;;;;2.30;0.82;;;15.10;99.90;;;;;;5016690;28;20041;-48
2022/06/15 05:23:29;;;;;;;1.20;0.57;;;15.30;99.90;;;;;;5031168;28;20399;-48
2022/06/15 05:25:58;;;;;;;1.83;0.65;;;15.90;99.90;;;;;;5032005;28;20064;-48
2022/06/15 05:28:24;;;;;;;2.90;0.75;;;16.20;99.90;;;;;;5024123;28;20045;-48
2022/06/15 05:30:49;;;;;;;3.33;0.85;;;16.40;99.90;;;;;;5030733;28;20104;-50
2022/06/15 05:33:15;;;;;;;3.78;0.70;;;16.30;99.90;;;;;;5031519;28;20510;-47
2022/06/15 05:35:40;;;;;;;2.08;0.52;;;16.30;99.90;;;;;;5031426;28;20063;-48
2022/06/15 05:38:06;;;;;;;2.75;0.50;;;16.30;99.90;;;;;;5031665;28;20280;-47
2022/06/15 05:40:32;;;;;;;2.53;0.70;;;16.30;99.90;;;;;;5027630;28;20076;-49
2022/06/15 05:42:58;;;;;;;2.92;0.60;;;16.30;99.90;;;;;;5027050;28;20133;-50
2022/06/15 05:45:24;;;;;;;3.40;0.82;;;16.30;99.90;;;;;;5029389;28;20045;-47
2022/06/15 05:47:50;;;;;;;3.60;0.70;;;16.20;99.90;;;;;;5005250;28;20104;-48
2022/06/15 05:50:16;;;;;;;2.20;0.63;;;16.30;99.90;;;;;;5025243;28;20037;-47
2022/06/15 05:52:42;;;;;;;2.42;0.57;;;16.30;99.90;;;;;;5009005;28;20055;-47
2022/06/15 05:55:08;;;;;;;2.10;0.60;;;16.30;99.90;;;;;;5032356;28;20764;-48
2022/06/15 05:57:34;;;;;;;4.32;0.60;;;16.30;99.90;;;;;;5032727;28;20037;-50
2022/06/15 06:00:03;;;;;;;3.28;0.60;;;16.40;99.90;;;;;;5030704;28;20037;-48
2022/06/15 06:02:29;;;;;;;2.47;0.73;;;16.40;99.90;;;;;;5034594;28;20065;-47
2022/06/15 06:04:55;;;;;;;2.08;0.50;;;16.50;99.90;;;;;;5034069;28;20092;-49
2022/06/15 06:07:22;;;;;;;2.50;0.50;;;16.50;99.90;;;;;;5026156;28;20040;-49
2022/06/15 06:09:48;;;;;;;4.07;0.90;;;16.50;99.90;;;;;;5018483;28;20040;-49
2022/06/15 06:12:14;;;;;;;1.60;0.52;;;16.60;99.90;;;;;;5041571;28;20483;-47
2022/06/15 06:14:42;;;;;;;2.55;0.90;;;16.60;99.90;;;;;;5027356;28;20052;-47
2022/06/15 06:17:09;;;;;;;2.60;0.45;;;16.70;99.90;;;;;;5030636;28;20416;-48
2022/06/15 06:19:35;;;;;;;2.60;0.60;;;16.80;99.90;;;;;;5031884;28;20038;-48
2022/06/15 06:22:01;;;;;;;3.70;0.50;;;16.80;99.90;;;;;;5028562;28;20045;-51
2022/06/15 06:24:26;;;;;;;2.38;0.65;;;16.90;99.90;;;;;;5021734;28;20048;-47
2022/06/15 06:26:59;;;;;;;2.83;0.80;;;16.90;99.90;;;;;;5012819;28;20088;-46
2022/06/15 06:29:27;;;;;;;4.35;0.70;;;17.00;99.90;;;;;;5039038;28;20476;-46
2022/06/15 06:31:53;;;;;;;3.65;0.60;;;17.00;99.90;;;;;;5016487;28;20053;-50
2022/06/15 06:34:18;;;;;;;1.80;0.50;;;17.10;99.90;;;;;;5030750;28;20042;-47
2022/06/15 06:36:45;;;;;;;2.85;0.70;;;17.10;99.90;;;;;;5019089;28;20053;-47
2022/06/15 06:39:28;;;;;;;3.88;0.70;;;17.20;99.90;;;;;;5018073;28;20049;-50
2022/06/15 06:41:55;;;;;;;4.80;0.55;;;17.20;99.90;;;;;;5019119;28;20072;-48
2022/06/15 06:44:21;;;;;;;2.22;0.60;;;17.30;99.90;;;;;;5026601;28;20068;-51
2022/06/15 06:46:49;;;;;;;2.45;0.63;;;17.40;99.90;;;;;;5015926;28;20400;-47
2022/06/15 06:49:16;;;;;;;2.88;0.50;;;17.50;99.90;;;;;;5030790;28;20499;-48
2022/06/15 06:51:43;;;;;;;3.55;0.57;;;17.50;99.90;;;;;;5024025;28;20068;-48
2022/06/15 06:54:11;;;;;;;2.75;0.75;;;17.60;99.90;;;;;;5025420;28;20029;-48
2022/06/15 06:56:37;;;;;;;2.47;0.47;;;17.70;99.90;;;;;;5027805;28;20120;-49
2022/06/15 06:59:09;;;;;;;3.13;0.70;;;17.70;99.90;;;;;;5031691;28;20144;-47
2022/06/15 07:01:36;;;;;;;4.03;0.73;;;17.80;99.90;;;;;;5029728;28;20045;-46
2022/06/15 07:04:02;;;;;;;4.40;0.70;;;17.90;99.90;;;;;;5024575;28;20034;-49
2022/06/15 07:06:28;;;;;;;3.67;0.90;;;17.90;99.90;;;;;;5032426;28;20090;-47
2022/06/15 07:08:53;;;;;;;3.35;0.80;;;18.00;99.90;;;;;;5027843;28;20196;-45
2022/06/15 07:11:19;;;;;;;3.03;0.70;;;18.10;99.90;;;;;;5038522;28;20046;-49
2022/06/15 07:13:46;;;;;;;2.13;0.70;;;18.10;99.90;;;;;;5029977;28;20440;-46
2022/06/15 07:16:15;;;;;;;3.55;0.57;;;18.20;99.90;;;;;;5027257;28;20567;-46
2022/06/15 07:18:43;;;;;;;4.47;0.60;;;18.20;99.90;;;;;;5006938;28;20046;-47
2022/06/15 07:21:21;;;;;;;5.05;0.57;;;18.30;99.90;;;;;;5023319;28;20045;-49
2022/06/15 07:23:49;;;;;;;3.88;0.60;;;18.30;99.90;;;;;;5026447;28;20037;-49
2022/06/15 07:26:23;;;;;;;4.88;0.68;;;18.40;99.90;;;;;;5019270;28;20099;-47
2022/06/15 07:28:49;;;;;;;5.40;0.60;;;18.40;99.90;;;;;;5030189;28;20041;-46
2022/06/15 07:31:28;;;;;;;4.65;0.47;;;18.50;99.90;;;;;;5025032;28;20033;-47
2022/06/15 07:33:55;;;;;;;3.60;0.50;;;18.50;99.90;;;;;;5022358;28;20048;-48
2022/06/15 07:36:23;;;;;;;5.10;1.08;;;18.60;99.90;;;;;;5024889;28;20605;-46
2022/06/15 07:38:50;;;;;;;5.38;0.70;;;18.60;99.90;;;;;;5018708;28;20046;-46
2022/06/15 07:41:15;;;;;;;5.22;0.70;;;18.70;99.90;;;;;;5015774;28;20496;-47
2022/06/15 07:43:41;;;;;;;6.45;0.85;;;18.70;99.90;;;;;;5013510;28;20127;-46
2022/06/15 07:46:08;;;;;;;6.47;0.80;;;18.70;99.90;;;;;;5012949;28;20069;-46
2022/06/15 07:51:46;;;;;;;3.63;0.50;;;18.80;99.90;;;;;;5010190;28;20313;-46
2022/06/15 07:54:14;;;;;;;2.92;0.45;;;18.90;99.90;;;;;;5027776;28;20041;-46
2022/06/15 07:56:40;;;;;;;2.78;0.60;;;19.00;99.90;;;;;;4997569;28;20520;-47
2022/06/15 07:59:06;;;;;;;3.80;0.70;;;19.00;99.90;;;;;;5028792;28;20084;-46
2022/06/15 08:01:33;;;;;;;3.88;0.50;;;19.00;99.90;;;;;;5003809;28;20034;-46
2022/06/15 08:03:58;;;;;;;3.97;0.73;;;19.10;99.90;;;;;;5012478;28;20400;-46
2022/06/15 08:06:25;;;;;;;4.03;0.45;;;19.10;99.90;;;;;;5023181;28;20042;-46
2022/06/15 08:08:52;;;;;;;4.18;0.50;;;19.20;99.90;;;;;;5029208;28;20045;-48
2022/06/15 08:11:18;;;;;;;2.63;0.73;;;19.30;99.90;;;;;;5029211;28;20554;-46
2022/06/15 08:13:45;;;;;;;4.80;0.60;;;19.30;99.90;;;;;;5013001;28;20061;-46
2022/06/15 08:16:12;;;;;;;7.47;0.60;;;19.40;99.90;;;;;;5024585;28;20045;-49
2022/06/15 08:18:47;;;;;;;3.95;0.50;;;19.50;99.90;;;;;;5022741;28;20442;-46
2022/06/15 08:21:19;;;;;;;3.83;0.50;;;19.60;99.90;;;;;;5021932;28;20049;-47
2022/06/15 08:23:49;;;;;;;5.25;0.60;;;19.70;99.90;;;;;;5020203;28;20552;-49
2022/06/15 08:26:20;;;;;;;4.10;0.50;;;19.80;99.90;;;;;;5034473;28;20064;-47
2022/06/15 08:28:51;;;;;;;4.60;0.50;;;19.90;99.90;;;;;;5017174;28;20442;-46
2022/06/15 08:31:18;;;;;;;3.53;0.55;;;20.00;99.90;;;;;;5019405;28;20029;-47
2022/06/15 08:33:44;;;;;;;4.93;0.40;;;20.00;99.90;;;;;;5015215;28;20050;-49
2022/06/15 08:36:11;;;;;;;3.78;0.60;;;20.10;99.90;;;;;;5028585;28;20502;-46
2022/06/15 08:38:37;;;;;;;4.70;0.75;;;20.20;99.90;;;;;;5029917;28;20125;-47
2022/06/15 08:41:25;;;;;;;3.20;0.30;;;20.30;99.90;;;;;;5025619;28;20139;-47
2022/06/15 08:44:18;;;;;;;3.55;0.30;;;20.40;99.90;;;;;;5025679;28;20499;-46
2022/06/15 08:46:59;;;;;;;2.30;0.30;;;20.60;99.90;;;;;;5035297;28;20121;-47
2022/06/15 08:49:53;;;;;;;4.47;0.38;;;20.70;99.90;;;;;;5026195;28;20496;-48
2022/06/15 08:52:26;;;;;;;3.50;0.43;;;20.80;99.90;;;;;;5035216;28;20032;-51
2022/06/15 08:54:58;;;;;;;;;;;20.90;99.90;;;;;;5021012;28;20056;-48
2022/06/15 08:57:41;;;;;;;3.40;0.50;;;21.00;99.90;;;;;;5030280;28;19932;-50
2022/06/15 09:00:29;;;;;;;3.50;0.40;;;21.00;99.90;;;;;;5036011;28;20045;-50
2022/06/15 09:03:21;;;;;;;4.75;0.50;;;21.10;99.90;;;;;;5033625;28;20052;-50
2022/06/15 09:06:17;;;;;;;3.00;0.60;;;21.20;99.90;;;;;;5027979;28;20033;-49
2022/06/15 09:08:56;;;;;;;2.60;0.43;;;21.30;99.90;;;;;;5029501;28;20081;-50
2022/06/15 09:11:28;;;;;;;3.22;0.45;;;21.30;99.90;;;;;;5006810;28;21018;-50
2022/06/15 09:14:05;;;;;;;6.33;1.00;;;21.40;99.90;;;;;;5027984;28;20056;-49
2022/06/15 09:16:43;;;;;;;3.30;0.68;;;21.50;99.90;;;;;;5034983;28;20291;-48
2022/06/15 09:19:18;;;;;;;6.22;1.15;;;21.60;99.90;;;;;;5028646;28;20118;-51
2022/06/15 09:21:51;;;;;;;5.43;0.77;;;21.60;99.90;;;;;;5017081;28;20049;-51
2022/06/15 09:24:48;;;;;;;4.10;0.75;;;21.70;99.90;;;;;;5018786;28;20391;-51
2022/06/15 09:27:41;;;;;;;4.28;1.00;;;21.80;99.90;;;;;;5024828;28;20052;-48
2022/06/15 09:30:27;;;;;;;5.05;1.00;;;21.80;99.90;;;;;;5040390;28;20033;-50
2022/06/15 09:33:15;;;;;;;4.40;1.10;;;21.90;99.90;;;;;;5023982;28;20173;-51
2022/06/15 09:35:50;;;;;;;4.75;1.05;;;22.00;99.90;;;;;;5023903;28;20656;-49
2022/06/15 09:38:16;;;;;;;4.95;1.17;;;22.00;99.90;;;;;;5014555;28;20041;-51
2022/06/15 09:40:48;;;;;;;6.80;1.15;;;22.10;99.90;;;;;;5029041;28;20033;-51
2022/06/15 09:43:23;;;;;;;4.63;0.88;;;22.10;99.90;;;;;;5030116;28;20068;-51
2022/06/15 09:45:55;;;;;;;3.58;0.80;;;22.20;99.90;;;;;;5037777;28;20045;-50
2022/06/15 09:48:33;;;;;;;5.63;1.02;;;22.20;99.90;;;;;;5024829;28;20075;-50
2022/06/15 09:51:15;;;;;;;4.07;0.82;;;22.30;99.90;;;;;;5026364;28;20033;-49
2022/06/15 09:53:50;;;;;;;4.45;0.70;;;22.30;99.90;;;;;;5032502;28;20049;-49
2022/06/15 09:56:19;;;;;;;3.42;0.98;;;22.40;99.90;;;;;;5013218;28;20045;-49
2022/06/15 09:58:59;;;;;;;5.07;0.90;;;22.50;99.90;;;;;;5027580;28;20028;-51
2022/06/15 10:01:30;;;;;;;4.25;0.95;;;22.50;99.90;;;;;;5034097;28;20037;-47
2022/06/15 10:03:58;;;;;;;5.63;0.98;;;22.50;99.90;;;;;;5029163;28;20466;-50
2022/06/15 10:06:30;;;;;;;5.65;0.93;;;22.60;99.90;;;;;;5019874;28;20440;-51
2022/06/15 10:08:58;;;;;;;3.65;0.80;;;22.60;99.90;;;;;;5016108;28;20485;-50
2022/06/15 10:11:52;;;;;;;4.30;0.80;;;22.70;99.90;;;;;;5021832;28;20034;-51
2022/06/15 10:14:32;;;;;;;3.42;0.77;;;22.80;99.90;;;;;;5017065;28;20081;-48
2022/06/15 10:17:18;;;;;;;4.45;0.70;;;22.90;99.90;;;;;;5013195;28;20507;-51
2022/06/15 10:19:48;;;;;;;4.32;1.10;;;22.90;99.90;;;;;;5032795;28;20103;-48
2022/06/15 10:22:27;;;;;;;4.15;0.85;;;23.00;99.90;;;;;;5036810;28;20110;-49
2022/06/15 10:24:55;;;;;;;5.15;1.00;;;23.10;99.90;;;;;;5024967;28;20728;-48
2022/06/15 10:27:24;;;;;;;5.38;0.70;;;23.10;99.90;;;;;;5020456;28;20042;-49
2022/06/15 10:30:18;;;;;;;2.78;0.88;;;23.10;99.90;;;;;;5024716;28;20037;-49
2022/06/15 10:33:14;;;;;;;4.25;0.85;;;23.20;99.90;;;;;;5008072;28;20057;-51
2022/06/15 10:35:40;;;;;;;3.47;0.63;;;23.20;99.90;;;;;;4993112;28;20060;-48
2022/06/15 10:38:15;;;;;;;3.30;0.57;;;23.20;99.90;;;;;;5005344;28;20046;-47
2022/06/15 10:41:45;;;;;;;3.67;0.60;;;23.30;99.90;;;;;;5022479;28;20050;-51
2022/06/15 10:43:47;;;;;;;3.97;0.70;;;23.40;99.90;;;;;;5024667;28;20408;-52
2022/06/15 10:46:13;;;;;;;3.25;0.50;;;23.40;99.90;;;;;;5023597;28;20038;-47
2022/06/15 10:48:52;;;;;;;2.35;0.50;;;23.50;99.90;;;;;;5023041;28;20049;-51
2022/06/15 10:51:36;;;;;;;2.80;0.70;;;23.60;99.90;;;;;;5025362;28;20068;-49
2022/06/15 10:54:17;;;;;;;4.15;0.70;;;23.60;99.90;;;;;;5027296;28;20049;-49
2022/06/15 11:02:26;;;;;;;3.17;0.60;;;23.90;99.90;;;;;;5020975;28;20463;-49
2022/06/15 11:05:00;;;;;;;2.53;0.60;;;24.00;99.90;;;;;;5025057;28;20052;-49
2022/06/15 11:07:48;;;;;;;2.20;0.50;;;24.10;99.90;;;;;;5018279;28;20026;-49
2022/06/15 11:10:31;;;;;;;3.10;0.43;;;24.10;99.90;;;;;;5024172;28;20057;-51
2022/06/15 11:13:19;;;;;;;3.83;0.93;;;24.20;99.30;;;;;;5014489;28;20046;-52
2022/06/15 11:18:46;;;;;;;2.30;0.60;;;24.20;97.70;;;;;;5015224;28;20053;-50
2022/06/15 11:21:27;;;;;;;3.78;0.60;;;24.30;97.70;;;;;;5012362;28;20522;-49
2022/06/15 11:24:25;;;;;;;2.22;0.60;;;24.30;96.80;;;;;;5028007;28;20117;-48
2022/06/15 11:27:03;;;;;;;3.10;0.50;;;24.30;95.90;;;;;;5015545;28;20034;-48
2022/06/15 11:30:02;;;;;;;3.10;0.57;;;24.30;95.00;;;;;;5022500;28;20121;-48
2022/06/15 11:32:48;;;;;;;2.60;0.60;;;24.30;95.50;;;;;;5030270;28;20056;-48
2022/06/15 11:35:14;;;;;;;2.22;0.40;;;24.40;94.30;;;;;;5027599;28;20056;-46
2022/06/15 11:37:45;;;;;;;3.25;0.52;;;24.40;93.70;;;;;;5026434;28;20038;-48
2022/06/15 11:40:41;;;;;;;2.63;0.60;;;24.40;93.50;;;;;;5022637;28;20038;-47
2022/06/15 11:43:15;;;;;;;4.97;0.60;;;24.50;92.80;;;;;;5023565;28;20105;-47
2022/06/15 11:45:58;;;;;;;2.67;0.50;;;24.40;92.00;;;;;;5031163;28;20046;-52
2022/06/15 11:48:29;;;;;;;3.85;0.52;;;24.40;91.80;;;;;;5021058;28;20042;-51
2022/06/15 11:51:30;;;;;;;3.58;0.60;;;24.50;91.20;;;;;;5013107;28;20487;-47
2022/06/15 11:54:02;;;;;;;2.08;0.43;;;24.60;91.50;;;;;;4991570;28;20495;-48
2022/06/15 11:56:37;;;;;;;2.50;0.55;;;24.60;89.60;;;;;;5028893;28;20037;-48
2022/06/15 11:59:18;;;;;;;3.45;0.60;;;24.60;90.10;;;;;;5015983;28;20068;-52
2022/06/15 12:02:09;;;;;;;3.10;0.50;;;24.60;90.00;;;;;;5025283;28;20046;-48
2022/06/15 12:05:16;;;;;;;4.22;0.50;;;24.60;87.50;;;;;;5014152;28;20539;-51
2022/06/15 12:07:52;;;;;;;1.58;0.45;;;24.70;90.10;;;;;;5026315;28;20060;-51
2022/06/15 12:10:36;;;;;;;2.65;0.50;;;24.70;88.30;;;;;;5028613;28;20069;-48
2022/06/15 12:13:25;;;;;;;2.25;0.57;;;24.70;84.50;;;;;;5025840;28;20103;-48
2022/06/15 12:15:59;;;;;;;2.90;0.57;;;24.70;86.60;;;;;;5024791;28;20049;-49
2022/06/15 12:18:50;;;;;;;2.83;0.40;;;24.80;84.80;;;;;;5022729;28;20084;-48
2022/06/15 12:21:45;;;;;;;3.08;0.40;;;24.80;83.70;;;;;;5029684;28;20071;-50
2022/06/15 12:24:34;;;;;;;1.88;0.40;;;24.80;83.70;;;;;;5018819;28;20496;-49
2022/06/15 12:27:14;;;;;;;2.85;0.55;;;24.80;84.10;;;;;;5012475;28;20137;-49
2022/06/15 12:29:55;;;;;;;4.00;0.45;;;24.90;83.30;;;;;;5024822;28;20077;-49
2022/06/15 12:35:10;;;;;;;2.38;0.43;;;25.00;80.90;;;;;;5014869;28;20050;-47
2022/06/15 12:37:53;;;;;;;1.67;0.50;;;25.00;83.10;;;;;;5027744;28;20042;-49
2022/06/15 12:40:42;;;;;;;2.20;0.50;;;25.00;81.30;;;;;;5011393;28;20045;-51
2022/06/15 12:43:27;;;;;;;2.13;0.47;;;25.00;80.80;;;;;;5013080;28;20383;-47
2022/06/15 12:46:04;;;;;;;2.53;0.47;;;25.10;81.10;;;;;;5028862;28;20043;-48
2022/06/15 12:48:35;;;;;;;4.90;0.60;;;25.10;80.50;;;;;;5024256;28;20044;-48
2022/06/15 12:51:17;;;;;;;3.10;0.50;;;25.10;80.30;;;;;;5011861;28;20041;-48
2022/06/15 12:54:21;;;;;;;2.63;0.40;;;25.20;80.70;;;;;;5024163;28;20460;-48
2022/06/15 12:56:57;;;;;;;1.40;0.40;;;25.20;78.50;;;;;;5027420;28;20034;-48
2022/06/15 12:59:23;;;;;;;1.67;0.50;;;25.20;76.50;;;;;;5027166;28;20049;-51
2022/06/15 13:02:05;;;;;;;1.45;0.40;;;25.20;75.00;;;;;;5028062;28;20488;-48
2022/06/15 13:04:48;;;;;;;1.70;0.40;;;25.30;72.90;;;;;;5012104;28;20041;-51
2022/06/15 13:07:27;;;;;;;3.30;0.60;;;25.20;72.80;;;;;;5028227;28;20033;-50
2022/06/15 13:10:08;;;;;;;1.48;0.32;;;25.20;70.60;;;;;;5017806;28;20034;-50
2022/06/15 13:12:47;;;;;;;2.00;0.47;;;25.30;70.30;;;;;;5027396;28;20041;-51
2022/06/15 13:15:27;;;;;;;1.73;0.40;;;25.30;69.00;;;;;;5025313;28;20044;-51
2022/06/15 13:18:12;;;;;;;1.90;0.40;;;25.30;70.50;;;;;;5026655;28;20041;-49
2022/06/15 13:20:50;;;;;;;2.83;0.47;;;25.40;71.00;;;;;;5012843;28;20052;-48
2022/06/15 13:23:17;;;;;;;1.98;0.30;;;25.40;69.50;;;;;;5025634;28;20084;-50
2022/06/15 13:25:52;;;;;;;1.92;0.40;;;25.40;70.10;;;;;;5013151;28;20046;-51
2022/06/15 13:28:21;;;;;;;2.92;0.40;;;25.50;72.40;;;;;;5011907;28;20030;-48
2022/06/15 13:30:50;;;;;;;1.80;0.40;;;25.50;70.80;;;;;;5029221;28;20396;-49
2022/06/15 13:33:17;;;;;;;3.63;0.60;;;25.50;70.70;;;;;;5013618;28;20103;-51